Time;durP1;ratioP1;P1;durP2;ratioP2;P2;SDS_P1;SDS_P2;PMS_P1;PMS_P2;Temp;Humidity;BMP_temperature;BMP_pressure;BME280_temperature;BME280_humidity;BME280_pressure;Samples;Min_cycle;Max_cycle;Signal;HPM_P1;HPM_P2
2023/08/20 00:00:34;;;;;;;5.13;4.60;;;20.50;89.00;;;;;;6194355;23;20576;-86
2023/08/20 00:03:11;;;;;;;6.55;5.30;;;20.50;89.00;;;;;;6169723;23;20141;-87
2023/08/20 00:05:38;;;;;;;5.55;4.95;;;20.50;89.00;;;;;;6193929;23;20140;-87
2023/08/20 00:08:08;;;;;;;5.78;5.05;;;20.50;89.20;;;;;;6168468;23;20148;-87
2023/08/20 00:10:34;;;;;;;5.90;5.30;;;20.40;89.00;;;;;;6119050;23;20160;-87
2023/08/20 00:13:00;;;;;;;6.07;5.30;;;20.50;89.10;;;;;;6169564;23;20239;-87
2023/08/20 00:15:27;;;;;;;5.47;4.90;;;20.50;89.00;;;;;;6169184;23;20703;-87
2023/08/20 00:17:54;;;;;;;5.55;4.93;;;20.40;89.00;;;;;;6145144;23;20181;-86
2023/08/20 00:20:21;;;;;;;5.88;5.00;;;20.50;89.00;;;;;;6193862;23;20139;-87
2023/08/20 00:22:47;;;;;;;5.82;4.97;;;20.50;89.10;;;;;;6193200;23;20561;-87
2023/08/20 00:25:14;;;;;;;6.15;5.07;;;20.50;89.00;;;;;;6194347;23;20144;-87
2023/08/20 00:27:40;;;;;;;5.88;4.72;;;20.60;89.10;;;;;;6169336;23;20153;-87
2023/08/20 00:30:08;;;;;;;5.43;4.82;;;20.50;89.00;;;;;;6194426;23;20228;-87
2023/08/20 00:32:34;;;;;;;6.30;5.40;;;20.50;89.00;;;;;;6193623;23;20576;-87
2023/08/20 00:34:59;;;;;;;6.13;5.18;;;20.50;89.00;;;;;;6169208;23;20199;-87
2023/08/20 00:37:25;;;;;;;5.68;5.00;;;20.50;89.00;;;;;;6169438;23;20202;-87
2023/08/20 00:39:51;;;;;;;5.25;4.75;;;20.50;89.00;;;;;;6093347;23;20157;-87
2023/08/20 00:42:17;;;;;;;5.72;4.75;;;20.50;89.00;;;;;;6170030;23;20807;-87
2023/08/20 00:44:44;;;;;;;5.43;4.88;;;20.50;89.00;;;;;;6195087;23;20152;-87
2023/08/20 00:47:11;;;;;;;5.68;5.00;;;20.50;89.00;;;;;;6194138;23;20137;-87
2023/08/20 00:49:36;;;;;;;5.60;5.00;;;20.50;89.00;;;;;;6177203;23;20217;-87
2023/08/20 00:52:03;;;;;;;5.70;5.00;;;20.50;89.00;;;;;;6152932;23;20153;-88
2023/08/20 00:54:29;;;;;;;5.40;4.80;;;20.50;89.00;;;;;;6177443;23;20238;-88
2023/08/20 00:56:55;;;;;;;5.32;4.80;;;20.50;88.90;;;;;;6202541;23;20141;-87
2023/08/20 00:59:25;;;;;;;5.55;5.00;;;20.50;89.00;;;;;;6196067;23;20446;-88
2023/08/20 01:01:53;;;;;;;5.20;4.70;;;20.50;89.00;;;;;;6143406;23;20596;-88
2023/08/20 01:04:19;;;;;;;6.38;5.35;;;20.50;88.90;;;;;;6193860;23;20149;-87
2023/08/20 01:07:07;;;;;;;5.40;4.80;;;20.40;89.00;;;;;;6192658;23;20188;-87
2023/08/20 01:09:52;;;;;;;5.75;5.05;;;20.50;89.00;;;;;;6171546;23;20663;-88
2023/08/20 01:12:18;;;;;;;5.85;4.85;;;20.50;89.00;;;;;;6168567;23;20254;-88
2023/08/20 01:14:46;;;;;;;5.93;5.18;;;20.40;88.90;;;;;;6144245;23;20177;-87
2023/08/20 01:17:15;;;;;;;6.28;5.50;;;20.50;88.90;;;;;;6168099;23;20161;-87
2023/08/20 01:19:41;;;;;;;5.90;5.10;;;20.50;89.00;;;;;;6118776;23;20157;-87
2023/08/20 01:22:37;;;;;;;5.65;4.90;;;20.40;89.00;;;;;;6168750;23;20196;-88
2023/08/20 01:25:27;;;;;;;6.05;5.15;;;20.50;89.00;;;;;;6167960;23;20671;-87
2023/08/20 01:28:17;;;;;;;6.07;5.10;;;20.50;89.10;;;;;;6171773;23;20161;-88
2023/08/20 01:30:43;;;;;;;5.70;5.10;;;20.50;89.10;;;;;;6124456;23;20608;-87
2023/08/20 01:33:11;;;;;;;5.65;5.05;;;20.50;89.20;;;;;;6193238;23;20152;-87
2023/08/20 01:35:36;;;;;;;6.20;5.47;;;20.50;89.20;;;;;;6168997;23;20180;-88
2023/08/20 01:38:02;;;;;;;6.10;5.40;;;20.50;89.20;;;;;;6144080;23;20145;-87
2023/08/20 01:40:30;;;;;;;5.93;5.25;;;20.50;89.20;;;;;;6193239;23;20137;-88
2023/08/20 01:42:56;;;;;;;5.28;4.78;;;20.50;89.20;;;;;;6166918;23;20661;-87
2023/08/20 01:45:23;;;;;;;5.70;4.80;;;20.40;89.10;;;;;;6167146;23;20157;-87
2023/08/20 01:47:49;;;;;;;5.65;4.97;;;20.50;89.20;;;;;;6167373;23;20157;-88
2023/08/20 01:50:15;;;;;;;6.22;5.15;;;20.50;89.20;;;;;;6168500;23;20163;-87
2023/08/20 01:52:41;;;;;;;7.68;5.28;;;20.40;89.20;;;;;;6143697;23;20148;-87
2023/08/20 01:55:08;;;;;;;5.90;5.22;;;20.40;89.20;;;;;;6168622;23;20169;-87
2023/08/20 01:57:34;;;;;;;5.53;5.03;;;20.50;89.20;;;;;;6191998;23;20133;-87
2023/08/20 01:59:59;;;;;;;5.72;5.03;;;20.50;89.20;;;;;;6092789;23;20465;-87
2023/08/20 02:02:25;;;;;;;5.85;5.18;;;20.50;89.20;;;;;;6143701;23;20141;-87
2023/08/20 02:04:51;;;;;;;5.85;5.10;;;20.50;89.10;;;;;;6168571;23;20204;-87
2023/08/20 02:07:17;;;;;;;5.53;4.85;;;20.50;89.20;;;;;;6142901;23;20149;-87
2023/08/20 02:09:43;;;;;;;5.70;5.10;;;20.40;89.10;;;;;;6193187;23;20144;-87
2023/08/20 02:12:08;;;;;;;6.60;5.22;;;20.40;89.20;;;;;;6192916;23;20632;-87
2023/08/20 02:14:35;;;;;;;5.80;4.93;;;20.50;89.20;;;;;;6168379;23;20191;-87
2023/08/20 02:17:02;;;;;;;6.63;5.40;;;20.50;89.20;;;;;;6193229;23;20138;-87
2023/08/20 02:19:28;;;;;;;5.18;4.68;;;20.50;89.20;;;;;;6092651;23;20202;-87
2023/08/20 02:21:54;;;;;;;5.82;5.15;;;20.40;89.10;;;;;;6143496;23;20149;-87
2023/08/20 02:24:19;;;;;;;5.55;4.72;;;20.50;89.10;;;;;;6193463;23;20163;-88
2023/08/20 02:26:45;;;;;;;5.38;4.88;;;20.50;89.00;;;;;;6192850;23;20161;-87
2023/08/20 02:29:11;;;;;;;5.82;5.18;;;20.40;89.00;;;;;;6168043;23;20156;-87
2023/08/20 02:31:37;;;;;;;5.93;5.22;;;20.40;89.00;;;;;;6168460;23;20176;-87
2023/08/20 02:34:03;;;;;;;5.10;4.43;;;20.50;89.90;;;;;;6143409;23;20159;-87
2023/08/20 02:36:29;;;;;;;6.38;5.38;;;20.40;89.00;;;;;;6092921;23;20538;-88
2023/08/20 02:38:54;;;;;;;5.57;4.97;;;20.40;89.10;;;;;;6091872;23;20148;-88
2023/08/20 02:41:20;;;;;;;5.50;4.97;;;20.40;89.00;;;;;;6193182;23;20220;-88
2023/08/20 02:43:46;;;;;;;6.10;5.15;;;20.50;89.20;;;;;;6167784;23;20533;-87
2023/08/20 02:46:12;;;;;;;6.03;5.20;;;20.40;89.20;;;;;;6142959;23;20156;-87
2023/08/20 02:48:37;;;;;;;5.53;4.93;;;20.40;89.00;;;;;;6192880;23;20148;-87
2023/08/20 02:51:03;;;;;;;6.55;5.22;;;20.40;89.00;;;;;;6167863;23;20611;-87
2023/08/20 02:53:29;;;;;;;5.80;4.85;;;20.40;89.10;;;;;;6192892;23;20163;-87
2023/08/20 02:55:56;;;;;;;5.65;5.05;;;20.40;89.10;;;;;;6192530;23;20182;-87
2023/08/20 02:58:21;;;;;;;5.75;4.80;;;20.40;89.10;;;;;;6192081;23;20140;-88
2023/08/20 03:00:47;;;;;;;5.90;5.28;;;20.40;89.10;;;;;;6193025;23;20168;-87
2023/08/20 03:03:16;;;;;;;5.95;5.00;;;20.40;89.20;;;;;;6168053;23;20227;-87
2023/08/20 03:05:44;;;;;;;5.82;5.20;;;20.40;89.20;;;;;;6142297;23;20160;-87
2023/08/20 03:08:12;;;;;;;5.47;4.85;;;20.40;89.10;;;;;;6166430;23;20153;-88
2023/08/20 03:10:37;;;;;;;5.25;4.70;;;20.40;89.20;;;;;;6167131;23;20185;-87
2023/08/20 03:13:03;;;;;;;6.18;5.40;;;20.40;89.20;;;;;;6192735;23;20211;-87
2023/08/20 03:15:30;;;;;;;5.00;4.35;;;20.40;89.20;;;;;;6167959;23;20275;-87
2023/08/20 03:17:58;;;;;;;5.97;5.20;;;20.40;89.20;;;;;;6117712;23;20160;-88
2023/08/20 03:20:28;;;;;;;5.82;4.95;;;20.40;89.20;;;;;;6166855;23;20160;-88
2023/08/20 03:22:53;;;;;;;6.22;5.15;;;20.50;89.20;;;;;;6142727;23;20280;-87
2023/08/20 03:25:19;;;;;;;5.75;5.03;;;20.40;89.10;;;;;;6168015;23;20616;-88
2023/08/20 03:27:46;;;;;;;5.75;5.10;;;20.40;89.00;;;;;;6143211;23;20153;-87
2023/08/20 03:30:12;;;;;;;5.38;4.70;;;20.40;89.00;;;;;;6166799;23;20211;-88
2023/08/20 03:32:39;;;;;;;6.10;5.10;;;20.50;89.10;;;;;;6168303;23;20141;-88
2023/08/20 03:35:06;;;;;;;5.30;4.80;;;20.40;89.10;;;;;;6142682;23;20678;-87
2023/08/20 03:37:32;;;;;;;6.13;5.07;;;20.50;89.20;;;;;;6166480;23;20211;-87
2023/08/20 03:39:59;;;;;;;5.93;4.85;;;20.40;89.10;;;;;;6143239;23;20146;-87
2023/08/20 03:42:25;;;;;;;5.65;5.00;;;20.40;89.10;;;;;;6165973;23;20178;-87
2023/08/20 03:44:51;;;;;;;5.20;4.63;;;20.40;89.10;;;;;;6192565;23;20180;-87
2023/08/20 03:47:21;;;;;;;5.53;4.85;;;20.40;89.20;;;;;;6166539;23;20183;-87
2023/08/20 03:49:48;;;;;;;6.00;4.97;;;20.40;89.10;;;;;;6193164;23;20589;-87
2023/08/20 03:52:14;;;;;;;5.38;4.75;;;20.40;89.20;;;;;;6168604;23;20133;-87
2023/08/20 03:54:41;;;;;;;5.78;4.75;;;20.40;89.00;;;;;;6144565;23;20173;-87
2023/08/20 03:57:06;;;;;;;5.55;4.88;;;20.40;89.10;;;;;;6169145;23;20152;-87
2023/08/20 03:59:33;;;;;;;5.63;5.03;;;20.40;89.10;;;;;;6169497;23;20133;-87
2023/08/20 04:01:59;;;;;;;5.97;5.13;;;20.40;89.10;;;;;;6093062;23;20516;-87
2023/08/20 04:04:25;;;;;;;5.60;5.00;;;20.40;89.20;;;;;;6194039;23;20145;-87
2023/08/20 04:06:52;;;;;;;5.70;4.93;;;20.40;89.20;;;;;;6143861;23;20156;-87
2023/08/20 04:09:17;;;;;;;5.80;5.20;;;20.40;89.20;;;;;;6168603;23;20494;-87
2023/08/20 04:11:43;;;;;;;6.28;5.47;;;20.40;89.20;;;;;;6168774;23;20204;-87
2023/08/20 04:14:10;;;;;;;6.03;5.20;;;20.30;89.00;;;;;;6169064;23;20184;-87
2023/08/20 04:16:36;;;;;;;6.22;5.50;;;20.40;89.10;;;;;;6092913;23;20587;-87
2023/08/20 04:19:02;;;;;;;5.50;4.88;;;20.40;89.10;;;;;;6194173;23;20137;-87
2023/08/20 04:21:28;;;;;;;5.88;5.25;;;20.40;89.20;;;;;;6169643;23;20272;-87
2023/08/20 04:23:54;;;;;;;5.68;5.03;;;20.40;89.20;;;;;;6092998;23;20145;-87
2023/08/20 04:26:20;;;;;;;5.45;4.88;;;20.40;89.20;;;;;;6169473;23;20149;-87
2023/08/20 04:28:46;;;;;;;4.72;4.28;;;20.30;89.00;;;;;;6168815;23;20141;-87
2023/08/20 04:31:12;;;;;;;5.72;4.60;;;20.40;89.20;;;;;;6093048;23;20184;-87
2023/08/20 04:33:38;;;;;;;6.03;5.40;;;20.40;89.20;;;;;;6193973;23;20204;-87
2023/08/20 04:36:03;;;;;;;5.57;4.88;;;20.40;89.20;;;;;;6169557;23;20165;-87
2023/08/20 04:38:29;;;;;;;6.28;5.43;;;20.30;89.10;;;;;;6169212;23;20160;-87
2023/08/20 04:40:55;;;;;;;5.93;5.22;;;20.40;89.20;;;;;;6169225;23;20520;-87
2023/08/20 04:43:21;;;;;;;5.70;4.80;;;20.40;89.20;;;;;;6093291;23;20143;-88
2023/08/20 04:45:47;;;;;;;6.13;5.13;;;20.40;89.20;;;;;;6194047;23;20137;-87
2023/08/20 04:48:13;;;;;;;5.60;5.00;;;20.30;89.20;;;;;;6194080;23;20148;-87
2023/08/20 04:50:39;;;;;;;5.60;5.00;;;20.40;89.20;;;;;;6093295;23;20164;-87
2023/08/20 04:53:05;;;;;;;5.85;5.15;;;20.30;89.20;;;;;;6168788;23;20148;-87
2023/08/20 04:55:31;;;;;;;5.60;4.80;;;20.40;89.20;;;;;;6193762;23;20164;-87
2023/08/20 04:57:57;;;;;;;5.90;4.80;;;20.40;89.20;;;;;;6092736;23;20446;-87
2023/08/20 05:00:22;;;;;;;5.40;4.85;;;20.30;89.20;;;;;;6193604;23;20276;-86
2023/08/20 05:02:48;;;;;;;5.50;4.90;;;20.30;89.20;;;;;;6169100;23;20469;-87
2023/08/20 05:05:14;;;;;;;5.72;5.05;;;20.30;90.00;;;;;;6169476;23;20137;-87
2023/08/20 05:07:41;;;;;;;5.80;5.00;;;20.30;89.20;;;;;;6168227;23;20601;-87
2023/08/20 05:10:08;;;;;;;6.00;5.20;;;20.30;89.30;;;;;;6193902;23;20603;-87
2023/08/20 05:12:34;;;;;;;5.63;5.03;;;20.30;89.30;;;;;;6188475;23;20185;-87
2023/08/20 05:15:00;;;;;;;5.75;4.78;;;20.30;89.30;;;;;;6245988;23;20244;-87
2023/08/20 05:17:26;;;;;;;6.10;5.10;;;20.30;89.30;;;;;;6219723;23;20160;-88
2023/08/20 05:19:52;;;;;;;6.05;4.95;;;20.30;89.20;;;;;;6219026;23;20633;-87
2023/08/20 05:22:19;;;;;;;5.53;4.82;;;20.30;89.20;;;;;;6219137;23;20456;-88
2023/08/20 05:24:45;;;;;;;6.20;5.00;;;20.30;89.20;;;;;;6219238;23;20133;-87
2023/08/20 05:27:14;;;;;;;5.30;4.70;;;20.30;89.20;;;;;;6193933;23;20150;-87
2023/08/20 05:29:40;;;;;;;5.65;4.85;;;20.30;89.20;;;;;;6194907;23;20134;-87
2023/08/20 05:32:07;;;;;;;5.85;4.85;;;20.30;89.20;;;;;;6194038;23;20233;-87
2023/08/20 05:34:33;;;;;;;5.70;4.90;;;20.30;89.20;;;;;;6219351;23;20189;-87
2023/08/20 05:36:59;;;;;;;5.20;4.50;;;20.30;89.20;;;;;;6219622;23;20557;-87
2023/08/20 05:39:25;;;;;;;4.75;4.25;;;20.30;89.20;;;;;;6219411;23;20130;-87
2023/08/20 05:41:53;;;;;;;5.72;4.90;;;20.30;89.20;;;;;;6219278;23;20141;-88
2023/08/20 05:44:19;;;;;;;5.68;4.90;;;20.30;89.20;;;;;;6169564;23;20173;-88
2023/08/20 05:46:45;;;;;;;5.35;4.65;;;20.40;89.10;;;;;;6193806;23;20172;-87
2023/08/20 05:49:12;;;;;;;5.35;4.57;;;20.30;89.10;;;;;;6245727;23;20561;-87
2023/08/20 05:51:37;;;;;;;5.53;4.88;;;20.30;89.10;;;;;;6194327;23;20706;-87
2023/08/20 05:54:03;;;;;;;5.68;5.05;;;20.30;89.20;;;;;;6193846;23;20165;-88
2023/08/20 05:56:30;;;;;;;5.53;4.75;;;20.30;89.10;;;;;;6219113;23;20133;-87
2023/08/20 05:58:56;;;;;;;5.65;5.00;;;20.30;89.10;;;;;;6193609;23;20145;-87
2023/08/20 06:01:22;;;;;;;5.43;4.70;;;20.30;89.10;;;;;;6193753;23;20145;-86
2023/08/20 06:03:47;;;;;;;6.03;5.13;;;20.40;89.20;;;;;;6245632;23;20580;-87
2023/08/20 06:06:13;;;;;;;5.90;5.18;;;20.30;89.20;;;;;;6219127;23;20146;-86
2023/08/20 06:08:39;;;;;;;5.97;4.82;;;20.30;89.10;;;;;;6217970;23;20159;-86
2023/08/20 06:11:05;;;;;;;5.60;4.68;;;20.30;89.10;;;;;;6168375;23;20229;-86
2023/08/20 06:13:31;;;;;;;5.25;4.68;;;20.30;89.20;;;;;;6218417;23;20563;-87
2023/08/20 06:15:57;;;;;;;6.07;5.00;;;20.30;89.10;;;;;;6218722;23;20169;-87
2023/08/20 06:18:22;;;;;;;5.85;4.90;;;20.30;89.10;;;;;;6218547;23;20484;-86
2023/08/20 06:20:48;;;;;;;5.70;5.07;;;20.30;89.10;;;;;;6218571;23;20145;-87
2023/08/20 06:23:14;;;;;;;5.50;4.63;;;20.30;89.10;;;;;;6193563;23;20149;-87
2023/08/20 06:25:39;;;;;;;5.40;4.72;;;20.30;89.00;;;;;;6218690;23;20144;-87
2023/08/20 06:28:05;;;;;;;4.93;4.43;;;20.30;89.10;;;;;;6193986;23;20180;-87
2023/08/20 06:30:31;;;;;;;5.13;4.43;;;20.30;89.10;;;;;;6245452;23;20237;-87
2023/08/20 06:32:57;;;;;;;6.28;4.93;;;20.30;89.10;;;;;;6218620;23;20137;-86
2023/08/20 06:35:22;;;;;;;5.80;4.80;;;20.30;89.20;;;;;;6168849;23;20434;-87
2023/08/20 06:37:48;;;;;;;5.63;4.82;;;20.30;89.20;;;;;;6218559;23;20232;-87
2023/08/20 06:40:14;;;;;;;6.00;5.00;;;20.30;89.20;;;;;;6245386;23;20134;-88
2023/08/20 06:42:40;;;;;;;5.50;4.80;;;20.30;89.20;;;;;;6245349;23;20492;-87
2023/08/20 06:45:08;;;;;;;5.38;4.53;;;20.40;89.30;;;;;;6193522;23;20892;-88
2023/08/20 06:47:34;;;;;;;5.00;4.45;;;20.30;88.70;;;;;;6218736;23;20212;-88
2023/08/20 06:49:59;;;;;;;4.65;4.18;;;20.40;88.50;;;;;;6218635;23;20152;-88
2023/08/20 06:52:25;;;;;;;4.00;3.60;;;20.40;88.20;;;;;;6194009;23;20175;-87
2023/08/20 06:54:51;;;;;;;4.18;3.78;;;20.40;88.00;;;;;;6218457;23;20169;-88
2023/08/20 06:57:17;;;;;;;4.47;3.95;;;20.40;87.80;;;;;;6245132;23;20192;-87
2023/08/20 06:59:43;;;;;;;4.22;3.83;;;20.40;87.90;;;;;;6193739;23;20142;-87
2023/08/20 07:02:10;;;;;;;3.95;3.40;;;20.40;88.10;;;;;;6193450;23;20208;-87
2023/08/20 07:04:36;;;;;;;3.97;3.58;;;20.30;88.00;;;;;;6169288;23;20573;-87
2023/08/20 07:07:04;;;;;;;3.58;3.28;;;20.20;88.10;;;;;;6218085;23;20684;-86
2023/08/20 07:09:30;;;;;;;4.00;3.50;;;20.30;88.10;;;;;;6218909;23;20130;-87
2023/08/20 07:11:56;;;;;;;3.42;3.13;;;20.30;88.10;;;;;;6192934;23;20215;-87
2023/08/20 07:14:22;;;;;;;3.85;3.20;;;20.30;88.20;;;;;;6200829;23;20561;-88
2023/08/20 07:16:53;;;;;;;3.55;3.00;;;20.30;88.20;;;;;;6175370;23;20145;-87
2023/08/20 07:19:19;;;;;;;3.40;3.10;;;20.20;88.10;;;;;;6125455;23;20165;-87
2023/08/20 07:21:44;;;;;;;3.60;3.03;;;20.20;88.10;;;;;;6175193;23;20343;-87
2023/08/20 07:24:14;;;;;;;3.28;2.83;;;20.20;88.20;;;;;;6194431;23;20239;-87
2023/08/20 07:26:42;;;;;;;3.25;2.90;;;20.20;88.10;;;;;;6168741;23;20203;-87
2023/08/20 07:29:08;;;;;;;3.05;2.75;;;20.20;88.20;;;;;;6170223;23;20145;-87
2023/08/20 07:31:33;;;;;;;3.20;2.90;;;20.20;88.00;;;;;;6169499;23;20167;-87
2023/08/20 07:34:00;;;;;;;2.67;2.47;;;20.20;88.20;;;;;;6144750;23;20145;-87
2023/08/20 07:36:26;;;;;;;3.75;3.03;;;20.20;88.10;;;;;;6169444;23;20149;-87
2023/08/20 07:38:53;;;;;;;3.38;2.92;;;20.20;88.00;;;;;;6093089;23;20137;-87
2023/08/20 07:41:20;;;;;;;3.13;2.83;;;20.20;88.10;;;;;;6193960;23;20143;-87
2023/08/20 07:43:46;;;;;;;3.45;3.08;;;20.20;88.20;;;;;;6169125;23;20145;-87
2023/08/20 07:46:12;;;;;;;2.90;2.60;;;20.20;88.10;;;;;;6169672;23;20180;-87
2023/08/20 07:48:38;;;;;;;2.85;2.55;;;20.20;88.10;;;;;;6169569;23;20153;-88
2023/08/20 07:51:04;;;;;;;2.90;2.60;;;20.20;88.10;;;;;;6169385;23;20156;-86
2023/08/20 07:53:30;;;;;;;3.55;3.03;;;20.20;88.10;;;;;;6169575;23;20157;-88
2023/08/20 07:55:56;;;;;;;3.00;2.70;;;20.20;88.20;;;;;;6144755;23;20203;-87
2023/08/20 07:58:22;;;;;;;2.95;2.67;;;20.20;88.20;;;;;;6169507;23;20636;-87
2023/08/20 08:00:48;;;;;;;4.18;2.92;;;20.20;88.20;;;;;;6194561;23;20152;-87
2023/08/20 08:03:16;;;;;;;2.60;2.40;;;20.20;88.20;;;;;;6194077;23;20144;-87
2023/08/20 08:05:46;;;;;;;3.38;2.63;;;20.20;88.20;;;;;;6093352;23;20144;-88
2023/08/20 08:08:12;;;;;;;2.67;2.45;;;20.20;88.10;;;;;;6169112;23;20236;-88
2023/08/20 08:10:38;;;;;;;2.80;2.55;;;20.20;88.20;;;;;;6194414;23;20180;-87
2023/08/20 08:13:04;;;;;;;2.45;2.22;;;20.20;88.30;;;;;;6169406;23;20211;-88
2023/08/20 08:15:30;;;;;;;2.53;2.33;;;20.20;88.20;;;;;;6169423;23;20609;-90
2023/08/20 08:17:56;;;;;;;2.83;2.50;;;20.20;88.20;;;;;;6194203;23;20164;-89
2023/08/20 08:20:22;;;;;;;2.45;2.13;;;20.30;88.40;;;;;;6169434;23;20158;-89
2023/08/20 08:22:52;;;;;;;2.83;2.50;;;20.20;88.30;;;;;;6169861;23;20240;-88
2023/08/20 08:25:19;;;;;;;2.60;2.40;;;20.20;88.30;;;;;;6120271;23;20156;-88
2023/08/20 08:27:45;;;;;;;2.42;2.22;;;20.20;88.20;;;;;;6145032;23;20176;-88
2023/08/20 08:30:11;;;;;;;2.65;2.38;;;20.10;88.20;;;;;;6193888;23;20573;-88
2023/08/20 08:32:40;;;;;;;3.00;2.70;;;20.20;88.20;;;;;;6144758;23;20164;-89
2023/08/20 08:35:15;;;;;;;2.55;2.35;;;20.20;88.20;;;;;;6144155;23;20180;-88
2023/08/20 08:37:42;;;;;;;2.85;2.50;;;20.20;88.10;;;;;;6195960;23;20129;-86
2023/08/20 08:40:11;;;;;;;2.72;2.40;;;20.20;88.10;;;;;;6173151;23;20134;-88
2023/08/20 08:42:37;;;;;;;3.60;2.22;;;20.20;88.10;;;;;;6124990;23;20160;-88
2023/08/20 08:45:03;;;;;;;2.38;2.17;;;20.20;88.10;;;;;;6150062;23;20210;-89
2023/08/20 08:47:32;;;;;;;2.90;2.58;;;20.10;88.10;;;;;;6145690;23;20591;-88
2023/08/20 08:50:01;;;;;;;2.60;2.40;;;20.10;88.10;;;;;;6168854;23;20153;-87
2023/08/20 08:52:29;;;;;;;2.90;2.38;;;20.20;88.20;;;;;;6167652;23;20157;-88
2023/08/20 08:54:56;;;;;;;2.50;2.30;;;20.10;88.20;;;;;;6168279;23;20255;-87
2023/08/20 08:57:22;;;;;;;2.30;2.10;;;20.20;88.10;;;;;;6168470;23;20256;-87
2023/08/20 08:59:49;;;;;;;2.67;2.47;;;20.20;88.10;;;;;;6144549;23;20199;-88
2023/08/20 09:02:18;;;;;;;2.92;2.50;;;20.20;88.10;;;;;;6143602;23;20610;-87
2023/08/20 09:04:45;;;;;;;2.50;2.22;;;20.20;88.10;;;;;;6167633;23;20164;-87
2023/08/20 09:07:13;;;;;;;2.72;2.42;;;20.20;88.10;;;;;;6142646;23;20157;-87
2023/08/20 09:09:45;;;;;;;2.90;2.60;;;20.20;88.10;;;;;;6143347;23;20184;-87
2023/08/20 09:12:16;;;;;;;2.67;2.22;;;20.20;88.90;;;;;;6143597;23;20196;-87
2023/08/20 09:14:50;;;;;;;2.85;2.58;;;20.20;88.10;;;;;;6167240;23;20203;-87
2023/08/20 09:17:16;;;;;;;2.70;2.40;;;20.20;88.00;;;;;;6168928;23;20151;-87
2023/08/20 09:19:44;;;;;;;2.20;2.00;;;20.20;88.10;;;;;;6168568;23;20149;-87
2023/08/20 09:22:13;;;;;;;3.13;2.20;;;20.20;88.10;;;;;;6193646;23;20136;-88
2023/08/20 09:24:51;;;;;;;2.60;2.40;;;20.20;88.00;;;;;;6168594;23;20149;-88
2023/08/20 09:27:17;;;;;;;2.50;2.22;;;20.20;88.00;;;;;;6171481;23;20144;-87
2023/08/20 09:29:45;;;;;;;2.60;2.40;;;20.30;88.00;;;;;;6193800;23;20153;-88
2023/08/20 09:32:14;;;;;;;2.90;2.65;;;20.20;88.00;;;;;;6168967;23;20157;-87
2023/08/20 09:34:41;;;;;;;2.45;2.25;;;20.20;88.00;;;;;;6168297;23;20285;-88
2023/08/20 09:37:09;;;;;;;2.47;2.28;;;20.20;88.00;;;;;;6169296;23;20576;-88
2023/08/20 09:39:35;;;;;;;2.42;2.22;;;20.20;88.00;;;;;;6169134;23;20149;-87
2023/08/20 09:42:02;;;;;;;2.50;2.30;;;20.20;88.00;;;;;;6193418;23;20160;-88
2023/08/20 09:44:31;;;;;;;2.90;2.58;;;20.20;88.00;;;;;;6168444;23;20180;-87
2023/08/20 09:46:58;;;;;;;2.53;2.33;;;20.20;88.00;;;;;;6193754;23;20614;-87
2023/08/20 09:49:24;;;;;;;2.70;2.35;;;20.20;87.90;;;;;;6168899;23;20152;-87
2023/08/20 09:51:49;;;;;;;2.83;2.53;;;20.20;88.00;;;;;;6193522;23;20153;-87
2023/08/20 09:54:21;;;;;;;2.75;2.55;;;20.30;88.00;;;;;;6168795;23;20246;-88
2023/08/20 09:56:51;;;;;;;2.22;2.03;;;20.20;88.00;;;;;;6193570;23;20137;-88
2023/08/20 09:59:21;;;;;;;2.72;2.42;;;20.20;88.00;;;;;;6168929;23;20142;-87
2023/08/20 10:01:47;;;;;;;2.72;2.40;;;20.20;88.00;;;;;;6167573;23;20220;-88
2023/08/20 10:04:13;;;;;;;2.45;2.25;;;20.20;88.00;;;;;;6193094;23;20167;-87
2023/08/20 10:06:40;;;;;;;3.17;2.72;;;20.30;88.10;;;;;;6167314;23;20758;-87
2023/08/20 10:09:06;;;;;;;2.85;2.65;;;20.20;88.10;;;;;;6192821;23;20600;-88
2023/08/20 10:11:32;;;;;;;2.70;2.50;;;20.20;88.00;;;;;;6193079;23;20200;-88
2023/08/20 10:13:58;;;;;;;2.30;2.10;;;20.30;88.00;;;;;;6168128;23;20157;-87
2023/08/20 10:16:25;;;;;;;2.38;2.17;;;20.30;88.10;;;;;;6168023;23;20520;-87
2023/08/20 10:18:54;;;;;;;2.50;2.30;;;20.30;88.10;;;;;;6168557;23;20149;-86
2023/08/20 10:21:23;;;;;;;2.47;2.22;;;20.30;88.10;;;;;;6092638;23;20469;-87
2023/08/20 10:23:50;;;;;;;2.50;2.30;;;20.30;88.10;;;;;;6144041;23;20232;-87
2023/08/20 10:26:16;;;;;;;2.40;2.20;;;20.30;87.90;;;;;;6168545;23;20160;-87
2023/08/20 10:28:42;;;;;;;2.92;2.55;;;20.20;87.80;;;;;;6192364;23;20144;-87
2023/08/20 10:31:09;;;;;;;2.90;2.50;;;20.30;88.60;;;;;;6193169;23;20156;-87
2023/08/20 10:33:38;;;;;;;3.25;2.25;;;20.30;87.80;;;;;;6143746;23;20153;-87
2023/08/20 10:36:09;;;;;;;2.80;2.60;;;20.30;87.80;;;;;;6143426;23;20271;-87
2023/08/20 10:38:37;;;;;;;2.42;2.22;;;20.30;87.80;;;;;;6143994;23;20184;-87
2023/08/20 10:41:05;;;;;;;2.75;2.50;;;20.20;87.70;;;;;;6144508;23;20198;-87
2023/08/20 10:43:33;;;;;;;2.28;2.08;;;20.30;87.60;;;;;;6169551;23;20139;-87
2023/08/20 10:46:17;;;;;;;2.38;2.17;;;20.30;87.60;;;;;;6168477;23;20999;-88
2023/08/20 10:48:51;;;;;;;2.53;2.33;;;20.30;87.50;;;;;;6170109;23;20149;-87
2023/08/20 10:51:19;;;;;;;2.67;2.40;;;20.30;87.60;;;;;;6143215;23;20152;-88
2023/08/20 10:54:03;;;;;;;2.40;2.20;;;20.30;87.60;;;;;;6167907;23;20166;-88
2023/08/20 10:56:48;;;;;;;2.55;2.35;;;20.40;87.50;;;;;;6192772;23;20165;-87
2023/08/20 10:59:22;;;;;;;2.50;2.30;;;20.40;87.60;;;;;;6193326;23;20143;-87
2023/08/20 11:01:49;;;;;;;3.13;2.53;;;20.40;87.60;;;;;;6194770;23;20585;-87
2023/08/20 11:04:16;;;;;;;2.90;2.40;;;20.40;87.60;;;;;;6170508;23;20144;-87
2023/08/20 11:06:42;;;;;;;2.45;2.20;;;20.40;87.50;;;;;;6194900;23;20143;-87
2023/08/20 11:09:09;;;;;;;2.78;2.50;;;20.40;87.60;;;;;;6194471;23;20183;-87
2023/08/20 11:11:34;;;;;;;2.88;2.67;;;20.40;87.60;;;;;;6169589;23;20192;-87
2023/08/20 11:14:11;;;;;;;2.60;2.40;;;20.30;87.60;;;;;;6169736;23;20468;-87
2023/08/20 11:16:37;;;;;;;2.58;2.38;;;20.30;87.60;;;;;;6169637;23;20164;-87
2023/08/20 11:19:08;;;;;;;3.28;2.25;;;20.30;87.60;;;;;;6194942;23;20145;-87
2023/08/20 11:21:35;;;;;;;2.45;2.25;;;20.40;87.70;;;;;;6170637;23;20160;-87
2023/08/20 11:24:01;;;;;;;2.70;2.50;;;20.40;87.70;;;;;;6170519;23;20133;-87
2023/08/20 11:26:27;;;;;;;2.47;2.28;;;20.30;87.60;;;;;;6169936;23;20129;-87
2023/08/20 11:28:53;;;;;;;2.65;2.45;;;20.40;87.70;;;;;;6169832;23;20147;-88
2023/08/20 11:31:22;;;;;;;2.70;2.50;;;20.50;87.60;;;;;;6169834;23;20180;-87
2023/08/20 11:33:53;;;;;;;2.58;2.35;;;20.50;87.60;;;;;;6144041;23;20593;-88
2023/08/20 11:36:22;;;;;;;2.42;2.20;;;20.50;87.60;;;;;;6119381;23;20636;-87
2023/08/20 11:38:51;;;;;;;2.42;2.22;;;20.40;87.60;;;;;;6144005;23;20598;-87
2023/08/20 11:41:17;;;;;;;2.70;2.42;;;20.40;87.60;;;;;;6145441;23;20172;-86
2023/08/20 11:43:43;;;;;;;2.30;2.10;;;20.40;87.50;;;;;;6169617;23;20461;-87
2023/08/20 11:46:15;;;;;;;2.30;2.10;;;20.40;87.50;;;;;;6145245;23;20577;-87
2023/08/20 11:48:58;;;;;;;2.35;2.15;;;20.50;87.50;;;;;;6119691;23;20539;-87
2023/08/20 11:51:24;;;;;;;2.53;2.33;;;20.50;87.50;;;;;;6194689;23;20655;-88
2023/08/20 11:53:51;;;;;;;2.65;2.38;;;20.40;87.50;;;;;;6169757;23;20153;-87
2023/08/20 11:56:18;;;;;;;2.33;2.13;;;20.40;87.50;;;;;;6143597;23;20258;-87
2023/08/20 11:58:52;;;;;;;2.72;2.50;;;20.40;87.60;;;;;;6143578;23;20172;-87
2023/08/20 12:01:19;;;;;;;2.70;2.50;;;20.40;87.70;;;;;;6193994;23;20145;-87
2023/08/20 12:03:45;;;;;;;2.40;2.20;;;20.40;87.80;;;;;;6169518;23;20491;-87
2023/08/20 12:06:19;;;;;;;3.83;2.50;;;20.30;87.60;;;;;;6169542;23;20218;-86
2023/08/20 12:08:47;;;;;;;2.47;2.28;;;20.40;87.80;;;;;;6168449;23;20143;-87
2023/08/20 12:11:12;;;;;;;2.83;2.47;;;20.40;87.80;;;;;;6125788;23;20157;-87
2023/08/20 12:13:38;;;;;;;2.95;2.60;;;20.40;87.80;;;;;;6195422;23;20550;-87
2023/08/20 12:16:05;;;;;;;2.67;2.47;;;20.40;87.90;;;;;;6170048;23;20187;-86
2023/08/20 12:18:31;;;;;;;2.55;2.20;;;20.40;88.00;;;;;;6219837;23;20630;-88
2023/08/20 12:20:57;;;;;;;2.40;2.20;;;20.40;88.10;;;;;;6194852;23;20150;-88
2023/08/20 12:23:23;;;;;;;2.60;2.20;;;20.40;88.00;;;;;;6195056;23;20656;-87
2023/08/20 12:25:51;;;;;;;2.38;2.17;;;20.40;88.00;;;;;;6169787;23;20169;-88
2023/08/20 12:28:17;;;;;;;2.90;2.60;;;20.40;88.10;;;;;;6219671;23;20150;-88
2023/08/20 12:30:43;;;;;;;2.55;2.35;;;20.40;88.10;;;;;;6219808;23;20138;-87
2023/08/20 12:33:10;;;;;;;2.58;2.22;;;20.30;88.10;;;;;;6219766;23;20505;-87
2023/08/20 12:35:36;;;;;;;2.50;2.30;;;20.40;88.30;;;;;;6194898;23;20181;-88
2023/08/20 12:38:02;;;;;;;2.25;2.05;;;20.40;88.40;;;;;;6194517;23;20588;-87
2023/08/20 12:40:29;;;;;;;2.40;2.20;;;20.50;88.50;;;;;;6219582;23;20236;-87
2023/08/20 12:42:55;;;;;;;2.42;2.22;;;20.40;88.50;;;;;;6194893;23;20232;-88
2023/08/20 12:45:21;;;;;;;3.60;2.45;;;20.40;88.40;;;;;;6194985;23;20164;-87
2023/08/20 12:47:46;;;;;;;2.80;2.40;;;20.40;88.50;;;;;;6246337;23;20605;-87